Orbital elements of COSMOS 2023
| Launched | 30 May 1989 |
| Flight ended | – |
| Launch site | Tyuratam Missile and Space Center, Kazakhstan (Also known as Baikonur Cosmodrome) |
| Owner | Commonwealth of Independent States (former USSR) |
| NORAD ID | 20025 |
| Alternative names |
GLONASS GLONASS 35 |
| Date fetched |
Epoch osculation |
Inc. [°] |
Ecc. | RA asc node [hr] |
Arg Peri. [°] |
Mean anom [°] |
Mean motion [rev/day] |
Abs. mag |
| Date fetched |
Epoch osculation |
Inc. [°] |
Ecc. | RA asc node [hr] |
Arg Peri. [°] |
Mean anom [°] |
Mean motion [rev/day] |
Abs. mag |
| 2026 May 05 17:57 | 2026 May 05 11:07:42 | 64.9870 | 0.00194 | 20.8434 | 195.9360 | 163.1536 | 2.13104 | – |
| 2026 May 04 17:57 | 2026 Apr 28 04:34:29 | 64.9912 | 0.00193 | 20.8600 | 195.9967 | 163.1536 | 2.13104 | – |
| 2026 May 03 17:57 | 2026 Apr 28 04:34:29 | 64.9912 | 0.00193 | 20.8600 | 195.9967 | 163.1536 | 2.13104 | – |
| 2026 May 02 17:57 | 2026 Apr 28 04:34:29 | 64.9912 | 0.00193 | 20.8600 | 195.9967 | 163.1536 | 2.13104 | – |
| 2026 May 01 17:56 | 2026 Apr 28 04:34:29 | 64.9912 | 0.00193 | 20.8600 | 195.9967 | 163.1536 | 2.13104 | – |
| 2026 Apr 30 17:56 | 2026 Apr 28 04:34:29 | 64.9912 | 0.00193 | 20.8600 | 195.9967 | 163.1536 | 2.13104 | – |
| 2026 Apr 29 17:57 | 2026 Apr 22 02:56:44 | 64.9948 | 0.00192 | 20.8740 | 196.0754 | 163.1536 | 2.13104 | – |
| 2026 Apr 28 17:56 | 2026 Apr 22 02:56:44 | 64.9948 | 0.00192 | 20.8740 | 196.0754 | 163.1536 | 2.13104 | – |
| 2026 Apr 27 17:58 | 2026 Apr 22 02:56:44 | 64.9948 | 0.00192 | 20.8740 | 196.0754 | 163.1536 | 2.13104 | – |
| 2026 Apr 26 17:58 | 2026 Apr 22 02:56:44 | 64.9948 | 0.00192 | 20.8740 | 196.0754 | 163.1536 | 2.13104 | – |
| 2026 Apr 25 17:58 | 2026 Apr 22 02:56:44 | 64.9948 | 0.00192 | 20.8740 | 196.0754 | 163.1536 | 2.13104 | – |
| 2026 Apr 24 17:59 | 2026 Apr 22 02:56:44 | 64.9948 | 0.00192 | 20.8740 | 196.0754 | 163.1536 | 2.13104 | – |
| 2026 Apr 23 17:57 | 2026 Apr 19 00:16:18 | 64.9965 | 0.00192 | 20.8811 | 196.0987 | 163.1536 | 2.13104 | – |
| 2026 Apr 22 17:57 | 2026 Apr 19 00:16:18 | 64.9965 | 0.00192 | 20.8811 | 196.0987 | 163.1536 | 2.13104 | – |
| 2026 Apr 21 17:57 | 2026 Apr 19 00:16:18 | 64.9965 | 0.00192 | 20.8811 | 196.0987 | 163.1536 | 2.13104 | – |
| 2026 Apr 20 17:57 | 2026 Apr 19 00:16:18 | 64.9965 | 0.00192 | 20.8811 | 196.0987 | 163.1536 | 2.13104 | – |
| 2026 Apr 19 17:58 | 2026 Apr 19 00:16:18 | 64.9965 | 0.00192 | 20.8811 | 196.0987 | 163.1536 | 2.13104 | – |
| 2026 Apr 18 17:56 | 2026 Apr 11 18:17:23 | 65.0007 | 0.00194 | 20.8978 | 195.9416 | 163.1536 | 2.13104 | – |
| 2026 Apr 16 17:57 | 2026 Apr 11 18:17:23 | 65.0007 | 0.00194 | 20.8978 | 195.9416 | 163.1536 | 2.13104 | – |
| 2026 Apr 14 17:57 | 2026 Apr 11 18:17:23 | 65.0007 | 0.00194 | 20.8978 | 195.9416 | 163.1536 | 2.13104 | – |
| 2026 Apr 13 17:57 | 2026 Apr 11 18:17:23 | 65.0007 | 0.00194 | 20.8978 | 195.9416 | 163.1536 | 2.13104 | – |
| 2026 Apr 12 17:57 | 2026 Apr 08 11:31:24 | 65.0025 | 0.00194 | 20.9053 | 196.1333 | 163.1536 | 2.13104 | – |
| 2026 Apr 11 17:57 | 2026 Apr 08 11:31:24 | 65.0025 | 0.00194 | 20.9053 | 196.1333 | 163.1536 | 2.13104 | – |
| 2026 Apr 10 17:58 | 2026 Apr 08 11:31:24 | 65.0025 | 0.00194 | 20.9053 | 196.1333 | 163.1536 | 2.13104 | – |
| 2026 Apr 09 18:01 | 2026 Apr 08 11:31:24 | 65.0025 | 0.00194 | 20.9053 | 196.1333 | 163.1536 | 2.13104 | – |
| 2026 Apr 08 17:57 | 2026 Apr 08 11:31:24 | 65.0025 | 0.00194 | 20.9053 | 196.1333 | 163.1536 | 2.13104 | – |